Rush River, Wisconsin
Current Conditions -  °F | °C
As of 6:15 PM on Saturday 25 Oct 2014 (Local Time) from KRNH Reporting Station
Clear Clear  
Wind Chill: 55°   Ceiling: Unl
Heat Index: 55°   Visibility: 10mi
Dew Point: 23°   Wind: 10mph
Humidity: 28%   Direction: 290°WNW
Pressure: 30.02"   Gusts: NA
Location:  44.9659°N, 92.3734°W
Report Text: KRNH 252315Z AUTO 29009KT 10SM CLR 13/M05 A3002 RMK AO2 T01301050
Loading
Personal Weather Stations






























Interactive Weather Map
Tropical Storm Tracking
New forecast layout! Learn more

10-Day Weather Forecast

Advertisements
Track Severe Weather on mobile